createdAt,value
2023-08-12T00:00:35.123Z,85.90
2023-08-12T00:01:35.138Z,87.24
2023-08-12T00:02:35.136Z,88.65
2023-08-12T00:03:35.107Z,88.65
2023-08-12T00:04:35.072Z,88.71
2023-08-12T00:05:35.048Z,88.51
2023-08-12T00:06:35.067Z,87.81
2023-08-12T00:07:35.094Z,87.96
2023-08-12T00:08:35.012Z,86.76
2023-08-12T00:09:35.142Z,86.26
2023-08-12T00:10:35.013Z,85.96
2023-08-12T00:11:35.020Z,86.22
2023-08-12T00:12:35.023Z,85.72
2023-08-12T00:13:34.951Z,85.52
2023-08-12T00:14:34.966Z,85.96
2023-08-12T00:15:34.987Z,88.01
2023-08-12T00:16:34.908Z,87.60
2023-08-12T00:17:34.965Z,88.45
2023-08-12T00:18:35.895Z,89.06
2023-08-12T00:19:34.878Z,89.96
2023-08-12T00:20:34.876Z,89.66
2023-08-12T00:21:34.855Z,88.91
2023-08-12T00:22:34.887Z,88.31
2023-08-12T00:23:34.837Z,87.87
2023-08-12T00:24:34.850Z,87.77
2023-08-12T00:25:34.829Z,87.93
2023-08-12T00:26:34.829Z,87.82
2023-08-12T00:27:34.797Z,86.92
2023-08-12T00:28:34.811Z,86.32
2023-08-12T00:29:34.777Z,85.82
2023-08-12T00:30:34.801Z,85.47
2023-08-12T00:31:34.935Z,84.67
2023-08-12T00:32:34.796Z,84.77
2023-08-12T00:33:34.760Z,84.67
2023-08-12T00:34:34.720Z,84.61
2023-08-12T00:35:34.721Z,85.17
2023-08-12T00:36:35.699Z,84.67
2023-08-12T00:37:34.683Z,85.02
2023-08-12T00:38:34.729Z,84.97
2023-08-12T00:39:34.675Z,84.47
2023-08-12T00:40:34.687Z,85.02
2023-08-12T00:41:34.636Z,85.11
2023-08-12T00:42:34.669Z,85.25
2023-08-12T00:43:34.790Z,85.56
2023-08-12T00:44:34.607Z,86.56
2023-08-12T00:45:34.628Z,86.80
2023-08-12T00:46:34.597Z,87.77
2023-08-12T00:47:34.619Z,87.87
2023-08-12T00:48:34.554Z,86.96
2023-08-12T00:49:34.567Z,86.86
2023-08-12T00:50:34.615Z,86.36
2023-08-12T00:51:34.632Z,86.42
2023-08-12T00:52:34.524Z,86.62
2023-08-12T00:53:34.510Z,86.02
2023-08-12T00:54:34.589Z,85.82
2023-08-12T00:55:34.519Z,85.78
2023-08-12T00:56:34.477Z,85.68
2023-08-12T00:57:34.513Z,85.08
2023-08-12T00:58:34.424Z,85.27
2023-08-12T00:59:34.471Z,85.27
2023-08-12T01:00:34.912Z,84.97
2023-08-12T01:01:34.412Z,84.97
2023-08-12T01:02:34.638Z,85.27
2023-08-12T01:03:34.535Z,85.38
2023-08-12T01:04:34.404Z,84.97
2023-08-12T01:05:34.384Z,85.41
2023-08-12T01:06:34.438Z,85.82
2023-08-12T01:07:34.379Z,85.61
2023-08-12T01:08:34.355Z,85.72
2023-08-12T01:09:34.345Z,85.72
2023-08-12T01:10:34.323Z,85.72
2023-08-12T01:11:34.268Z,85.72
2023-08-12T01:12:34.259Z,85.92
2023-08-12T01:13:34.291Z,85.92
2023-08-12T01:14:34.265Z,86.02
2023-08-12T01:15:34.246Z,85.82
2023-08-12T01:16:34.233Z,85.72
2023-08-12T01:17:34.231Z,85.68
2023-08-12T01:18:34.312Z,86.02
2023-08-12T01:19:34.189Z,85.61
2023-08-12T01:20:35.422Z,85.92
2023-08-12T01:21:34.183Z,86.16
2023-08-12T01:22:34.167Z,87.65
2023-08-12T01:23:34.157Z,89.30
2023-08-12T01:24:34.178Z,90.65
2023-08-12T01:25:34.168Z,91.30
2023-08-12T01:26:34.156Z,92.00
2023-08-12T01:27:34.337Z,91.80
2023-08-12T01:28:34.135Z,92.10
2023-08-12T01:29:34.113Z,91.86
2023-08-12T01:30:34.241Z,91.51
2023-08-12T01:31:34.164Z,91.11
2023-08-12T01:32:34.140Z,90.41
2023-08-12T01:33:34.057Z,89.96
2023-08-12T01:34:34.064Z,89.66
2023-08-12T01:35:34.023Z,88.95
2023-08-12T01:36:34.088Z,89.66
2023-08-12T01:37:34.077Z,89.96
2023-08-12T01:38:34.063Z,89.51
2023-08-12T01:39:34.165Z,89.72
2023-08-12T01:40:34.033Z,88.95
2023-08-12T01:41:33.993Z,88.95
2023-08-12T01:42:34.008Z,89.26
2023-08-12T01:43:33.968Z,89.36
2023-08-12T01:44:33.923Z,90.41
2023-08-12T01:45:34.127Z,90.81
2023-08-12T01:46:34.037Z,90.70
2023-08-12T01:47:34.289Z,91.31
2023-08-12T01:48:34.070Z,90.91
2023-08-12T01:49:34.040Z,91.51
2023-08-12T01:50:33.919Z,90.91
2023-08-12T01:51:33.865Z,91.01
2023-08-12T01:52:33.861Z,91.01
2023-08-12T01:53:33.883Z,90.66
2023-08-12T01:54:33.877Z,90.56
2023-08-12T01:55:33.830Z,90.42
2023-08-12T01:56:33.805Z,89.42
2023-08-12T01:57:33.855Z,88.91
2023-08-12T01:58:33.845Z,88.71
2023-08-12T01:59:33.817Z,88.41
2023-08-12T02:00:33.759Z,89.46
2023-08-12T02:01:33.760Z,89.46
2023-08-12T02:02:33.807Z,90.06
2023-08-12T02:03:33.840Z,90.16
2023-08-12T02:04:33.730Z,90.06
2023-08-12T02:05:33.803Z,89.82
2023-08-12T02:06:33.672Z,88.81
2023-08-12T02:07:33.839Z,88.61
2023-08-12T02:08:33.740Z,88.37
2023-08-12T02:09:33.689Z,87.96
2023-08-12T02:10:33.666Z,88.31
2023-08-12T02:11:33.680Z,88.61
2023-08-12T02:12:33.670Z,88.67
2023-08-12T02:13:34.820Z,88.87
2023-08-12T02:14:34.376Z,88.37
2023-08-12T02:15:33.605Z,88.17
2023-08-12T02:16:33.696Z,87.52
2023-08-12T02:17:33.743Z,87.93
2023-08-12T02:18:33.831Z,87.28
2023-08-12T02:19:33.731Z,87.02
2023-08-12T02:20:33.565Z,86.72
2023-08-12T02:21:33.569Z,86.42
2023-08-12T02:22:33.548Z,86.08
2023-08-12T02:23:33.542Z,86.52
2023-08-12T02:24:33.551Z,86.22
2023-08-12T02:25:33.458Z,86.18
2023-08-12T02:26:33.537Z,86.52
2023-08-12T02:27:33.454Z,86.32
2023-08-12T02:28:33.463Z,87.96
2023-08-12T02:29:33.441Z,87.96
2023-08-12T02:30:34.291Z,88.51
2023-08-12T02:31:33.476Z,88.85
2023-08-12T02:32:33.623Z,89.42
2023-08-12T02:33:33.564Z,90.12
2023-08-12T02:34:33.414Z,90.66
2023-08-12T02:35:33.362Z,90.86
2023-08-12T02:36:33.395Z,92.02
2023-08-12T02:37:33.390Z,92.22
2023-08-12T02:38:33.345Z,92.52
2023-08-12T02:39:33.317Z,92.56
2023-08-12T02:40:33.404Z,92.76
2023-08-12T02:41:33.638Z,92.96
2023-08-12T02:42:34.076Z,92.82
2023-08-12T02:43:33.484Z,93.22
2023-08-12T02:44:33.444Z,92.92
2023-08-12T02:45:33.327Z,93.46
2023-08-12T02:46:33.263Z,94.42
2023-08-12T02:47:33.285Z,94.56
2023-08-12T02:48:33.857Z,94.96
2023-08-12T02:49:33.250Z,95.32
2023-08-12T02:50:33.226Z,95.98
2023-08-12T02:51:33.196Z,95.98
2023-08-12T02:52:33.178Z,95.33
2023-08-12T02:53:33.164Z,95.23
2023-08-12T02:54:33.165Z,94.18
2023-08-12T02:55:33.200Z,94.48
2023-08-12T02:56:33.140Z,93.28
2023-08-12T02:57:33.128Z,92.88
2023-08-12T02:58:33.099Z,92.73
2023-08-12T02:59:33.085Z,92.13
2023-08-12T03:00:33.137Z,92.23
2023-08-12T03:01:33.134Z,92.23
2023-08-12T03:02:33.153Z,92.23
2023-08-12T03:03:33.089Z,91.37
2023-08-12T03:04:33.058Z,93.48
2023-08-12T03:05:33.053Z,92.92
2023-08-12T03:06:33.004Z,93.22
2023-08-12T03:07:33.032Z,94.23
2023-08-12T03:08:32.981Z,94.73
2023-08-12T03:09:33.022Z,94.93
2023-08-12T03:10:32.959Z,94.73
2023-08-12T03:11:32.957Z,94.48
2023-08-12T03:12:33.015Z,93.88
2023-08-12T03:13:32.954Z,93.78
2023-08-12T03:14:32.938Z,93.88
2023-08-12T03:15:32.975Z,93.33
2023-08-12T03:16:32.942Z,94.93
2023-08-12T03:17:32.950Z,95.88
2023-08-12T03:18:32.908Z,96.73
2023-08-12T03:19:32.859Z,98.09
2023-08-12T03:20:32.905Z,98.64
2023-08-12T03:21:32.931Z,99.10
2023-08-12T03:22:32.846Z,99.19
2023-08-12T03:23:32.842Z,99.30
2023-08-12T03:25:05.218Z,99.99
2023-08-12T03:25:32.780Z,99.99
2023-08-12T03:26:32.838Z,99.99
2023-08-12T03:27:33.422Z,99.99
2023-08-12T03:28:32.813Z,99.99
2023-08-12T03:29:32.783Z,99.99
2023-08-12T03:30:32.762Z,99.99
2023-08-12T03:31:32.767Z,99.99
2023-08-12T03:32:32.766Z,99.99
2023-08-12T03:33:32.761Z,99.99
2023-08-12T03:34:33.755Z,99.99
2023-08-12T03:35:32.703Z,99.99
2023-08-12T03:36:32.736Z,99.99
2023-08-12T03:37:32.725Z,99.99
2023-08-12T03:38:32.714Z,99.99
2023-08-12T03:39:32.699Z,99.99
2023-08-12T03:40:32.646Z,99.99
2023-08-12T03:41:32.644Z,99.99
2023-08-12T03:42:32.644Z,99.99
2023-08-12T03:43:32.617Z,99.99
2023-08-12T03:44:32.906Z,99.99
2023-08-12T03:45:32.623Z,99.99
2023-08-12T03:46:32.590Z,99.99
2023-08-12T03:47:32.687Z,99.99
2023-08-12T03:48:32.651Z,99.99
2023-08-12T03:49:32.601Z,99.99
2023-08-12T03:50:32.545Z,99.99
2023-08-12T03:51:32.547Z,99.99
2023-08-12T03:52:32.571Z,99.99
2023-08-12T03:53:32.513Z,99.99
2023-08-12T03:54:32.527Z,99.99
2023-08-12T03:55:32.531Z,99.99
2023-08-12T03:56:32.507Z,99.99
2023-08-12T03:57:32.482Z,99.99
2023-08-12T03:58:32.407Z,99.99
2023-08-12T03:59:32.415Z,99.99
2023-08-12T04:00:32.476Z,99.99
2023-08-12T04:01:32.425Z,99.99
2023-08-12T04:02:32.538Z,99.99
2023-08-12T04:03:32.514Z,99.99
2023-08-12T04:04:32.387Z,99.99
2023-08-12T04:05:32.446Z,99.99
2023-08-12T04:06:32.407Z,99.99
2023-08-12T04:07:32.352Z,99.99
2023-08-12T04:08:32.366Z,99.99
2023-08-12T04:09:32.321Z,99.99
2023-08-12T04:10:32.291Z,99.99
2023-08-12T04:11:32.366Z,99.99
2023-08-12T04:12:32.338Z,99.99
2023-08-12T04:13:32.270Z,99.99
2023-08-12T04:14:32.323Z,99.99
2023-08-12T04:15:32.283Z,99.99
2023-08-12T04:16:32.326Z,99.99
2023-08-12T04:17:32.294Z,99.99
2023-08-12T04:18:32.208Z,99.99
2023-08-12T04:19:32.179Z,99.99
2023-08-12T04:20:32.233Z,99.99
2023-08-12T04:21:32.243Z,99.99
2023-08-12T04:22:32.172Z,99.99
2023-08-12T04:23:32.186Z,99.99
2023-08-12T04:24:32.165Z,99.99
2023-08-12T04:25:32.214Z,99.99
2023-08-12T04:26:32.104Z,99.99
2023-08-12T04:27:32.199Z,99.99
2023-08-12T04:28:32.144Z,99.99
2023-08-12T04:29:32.091Z,99.99
2023-08-12T04:30:32.112Z,99.99
2023-08-12T04:31:32.428Z,99.99
2023-08-12T04:32:32.122Z,99.99
2023-08-12T04:33:32.069Z,99.99
2023-08-12T04:34:32.084Z,99.99
2023-08-12T04:35:32.054Z,99.99
2023-08-12T04:36:32.005Z,99.99
2023-08-12T04:37:32.005Z,99.99
2023-08-12T04:38:32.028Z,99.85
2023-08-12T04:39:32.012Z,99.95
2023-08-12T04:40:32.073Z,99.99
2023-08-12T04:41:31.997Z,99.99
2023-08-12T04:42:31.960Z,99.99
2023-08-12T04:43:31.941Z,99.99
2023-08-12T04:44:31.928Z,99.99
2023-08-12T04:45:31.926Z,99.99
2023-08-12T04:46:31.996Z,99.99
2023-08-12T04:47:31.953Z,99.99
2023-08-12T04:48:31.937Z,99.99
2023-08-12T04:49:31.874Z,99.99
2023-08-12T04:50:31.854Z,99.99
2023-08-12T04:51:31.872Z,99.99
2023-08-12T04:52:31.873Z,99.99
2023-08-12T04:53:31.861Z,99.99
2023-08-12T04:54:31.817Z,99.99
2023-08-12T04:55:31.851Z,99.99
2023-08-12T04:56:31.921Z,99.99
2023-08-12T04:57:31.819Z,99.99
2023-08-12T04:58:31.758Z,99.99
2023-08-12T04:59:31.759Z,99.99
2023-08-12T05:00:31.868Z,99.99
2023-08-12T05:01:31.774Z,99.99
2023-08-12T05:02:31.768Z,99.99
2023-08-12T05:03:31.733Z,99.99
2023-08-12T05:04:31.702Z,99.99
2023-08-12T05:05:31.837Z,99.99
2023-08-12T05:06:31.708Z,99.99
2023-08-12T05:07:31.654Z,99.99
2023-08-12T05:08:31.769Z,99.99
2023-08-12T05:09:31.663Z,99.99
2023-08-12T05:10:31.667Z,99.99
2023-08-12T05:11:31.685Z,99.99
2023-08-12T05:12:31.631Z,99.99
2023-08-12T05:13:31.590Z,99.99
2023-08-12T05:14:31.624Z,99.99
2023-08-12T05:15:31.609Z,99.99
2023-08-12T05:16:31.629Z,99.99
2023-08-12T05:17:31.597Z,99.99
2023-08-12T05:18:31.530Z,99.99
2023-08-12T05:19:31.539Z,99.99
2023-08-12T05:20:31.546Z,99.99
2023-08-12T05:21:31.587Z,99.99
2023-08-12T05:22:31.589Z,99.99
2023-08-12T05:23:31.494Z,99.99
2023-08-12T05:24:31.484Z,99.99
2023-08-12T05:25:31.482Z,99.99
2023-08-12T05:26:31.465Z,99.99
2023-08-12T05:27:32.492Z,99.99
2023-08-12T05:28:31.478Z,99.99
2023-08-12T05:29:31.420Z,99.99
2023-08-12T05:30:31.403Z,99.99
2023-08-12T05:31:31.467Z,99.99
2023-08-12T05:32:31.422Z,99.99
2023-08-12T05:33:31.504Z,99.99
2023-08-12T05:34:31.386Z,99.99
2023-08-12T05:35:31.392Z,99.99
2023-08-12T05:36:31.425Z,99.99
2023-08-12T05:37:31.349Z,99.99
2023-08-12T05:38:31.344Z,99.99
2023-08-12T05:39:31.320Z,99.99
2023-08-12T05:40:31.339Z,99.99
2023-08-12T05:41:31.341Z,99.96
2023-08-12T05:42:31.333Z,99.86
2023-08-12T05:43:31.274Z,99.76
2023-08-12T05:44:31.272Z,99.76
2023-08-12T05:45:31.275Z,99.66
2023-08-12T05:46:31.221Z,99.05
2023-08-12T05:47:31.257Z,98.65
2023-08-12T05:48:31.189Z,98.50
2023-08-12T05:49:31.206Z,99.11
2023-08-12T05:50:31.197Z,98.95
2023-08-12T05:51:31.251Z,99.20
2023-08-12T05:52:31.194Z,99.85
2023-08-12T05:53:31.213Z,99.99
2023-08-12T05:54:31.136Z,99.99
2023-08-12T05:55:32.170Z,99.99
2023-08-12T05:56:31.138Z,99.99
2023-08-12T05:57:31.163Z,99.99
2023-08-12T05:58:31.177Z,99.99
2023-08-12T05:59:31.149Z,99.99
2023-08-12T06:00:31.095Z,99.99
2023-08-12T06:01:31.191Z,99.99
2023-08-12T06:02:31.143Z,99.99
2023-08-12T06:03:31.061Z,99.99
2023-08-12T06:04:31.057Z,99.99
2023-08-12T06:05:31.061Z,99.99
2023-08-12T06:06:31.119Z,99.99
2023-08-12T06:07:31.002Z,99.99
2023-08-12T06:08:31.018Z,99.99
2023-08-12T06:09:30.997Z,99.99
2023-08-12T06:10:30.976Z,99.99
2023-08-12T06:11:30.984Z,99.99
2023-08-12T06:12:30.944Z,99.99
2023-08-12T06:13:30.959Z,99.99
2023-08-12T06:14:30.928Z,99.99
2023-08-12T06:15:30.934Z,99.99
2023-08-12T06:16:30.894Z,99.99
2023-08-12T06:17:30.973Z,99.99
2023-08-12T06:18:30.883Z,99.99
2023-08-12T06:19:30.879Z,99.99
2023-08-12T06:20:30.853Z,99.99
2023-08-12T06:21:30.854Z,99.99
2023-08-12T06:22:31.073Z,99.99
2023-08-12T06:23:30.808Z,99.99
2023-08-12T06:24:30.835Z,99.99
2023-08-12T06:25:30.813Z,99.99
2023-08-12T06:26:30.835Z,99.99
2023-08-12T06:27:30.811Z,99.99
2023-08-12T06:28:30.760Z,99.99
2023-08-12T06:29:30.773Z,99.99
2023-08-12T06:30:30.761Z,99.99
2023-08-12T06:31:30.837Z,99.99
2023-08-12T06:32:30.720Z,99.99
2023-08-12T06:33:30.713Z,99.99
2023-08-12T06:34:30.740Z,99.99
2023-08-12T06:35:30.762Z,99.99
2023-08-12T06:36:30.717Z,99.99
2023-08-12T06:37:30.682Z,99.99
2023-08-12T06:38:30.685Z,99.99
2023-08-12T06:39:30.652Z,99.99
2023-08-12T06:40:30.734Z,99.99
2023-08-12T06:41:30.651Z,99.99
2023-08-12T06:42:30.663Z,99.99
2023-08-12T06:43:30.649Z,99.99
2023-08-12T06:44:30.668Z,99.99
2023-08-12T06:45:30.693Z,99.99
2023-08-12T06:46:30.618Z,99.99
2023-08-12T06:47:30.662Z,99.99
2023-08-12T06:48:30.664Z,99.99
2023-08-12T06:49:30.586Z,99.99
2023-08-12T06:50:30.599Z,99.99
2023-08-12T06:51:30.583Z,99.99
2023-08-12T06:52:30.547Z,99.99
2023-08-12T06:53:30.503Z,99.99
2023-08-12T06:54:30.569Z,99.99
2023-08-12T06:55:30.476Z,99.99
2023-08-12T06:56:30.471Z,99.99
2023-08-12T06:57:30.462Z,99.99
2023-08-12T06:58:30.469Z,99.99
2023-08-12T06:59:30.479Z,99.99
2023-08-12T07:00:30.485Z,99.99
2023-08-12T07:01:30.494Z,99.99
2023-08-12T07:02:30.474Z,99.99
2023-08-12T07:03:30.463Z,99.99
2023-08-12T07:04:30.398Z,99.99
2023-08-12T07:05:30.369Z,99.67
2023-08-12T07:06:30.388Z,98.17
2023-08-12T07:07:30.360Z,97.67
2023-08-12T07:08:30.371Z,96.23
2023-08-12T07:09:30.351Z,94.78
2023-08-12T07:10:30.299Z,93.74
2023-08-12T07:11:30.330Z,91.89
2023-08-12T07:12:30.268Z,90.65
2023-08-12T07:13:30.344Z,90.15
2023-08-12T07:14:30.287Z,89.76
2023-08-12T07:15:30.264Z,87.27
2023-08-12T07:16:30.257Z,87.27
2023-08-12T07:17:30.288Z,87.66
2023-08-12T07:18:30.272Z,87.37
2023-08-12T07:19:30.854Z,87.96
2023-08-12T07:20:30.197Z,87.66
2023-08-12T07:21:30.194Z,87.27
2023-08-12T07:22:30.151Z,87.21
2023-08-12T07:23:30.194Z,88.01
2023-08-12T07:24:30.145Z,88.01
2023-08-12T07:25:30.267Z,88.95
2023-08-12T07:26:30.123Z,88.69
2023-08-12T07:27:30.128Z,89.64
2023-08-12T07:28:30.113Z,89.03
2023-08-12T07:29:30.111Z,90.37
2023-08-12T07:30:30.085Z,90.37
2023-08-12T07:31:30.150Z,91.53
2023-08-12T07:32:30.136Z,90.13
2023-08-12T07:33:30.069Z,90.63
2023-08-12T07:34:31.639Z,90.83
2023-08-12T07:35:31.096Z,90.89
2023-08-12T07:36:30.040Z,90.73
2023-08-12T07:37:30.035Z,90.83
2023-08-12T07:38:30.041Z,90.83
2023-08-12T07:39:30.011Z,91.13
2023-08-12T07:40:30.926Z,90.44
2023-08-12T07:41:29.947Z,90.73
2023-08-12T07:42:29.972Z,90.73
2023-08-12T07:43:29.974Z,89.89
2023-08-12T07:44:29.973Z,89.95
2023-08-12T07:45:29.986Z,87.82
2023-08-12T07:46:30.065Z,82.50
2023-08-12T07:47:30.006Z,81.60
2023-08-12T07:48:29.872Z,78.57
2023-08-12T07:49:29.915Z,74.10
2023-08-12T07:50:29.889Z,68.73
2023-08-12T07:51:29.851Z,70.15
2023-08-12T07:52:29.858Z,67.48
2023-08-12T07:53:29.829Z,64.75
2023-08-12T07:54:29.833Z,64.20
2023-08-12T07:55:29.854Z,61.58
2023-08-12T07:56:29.795Z,63.12
2023-08-12T07:57:29.775Z,59.22
2023-08-12T07:58:29.788Z,63.18
2023-08-12T07:59:29.787Z,64.85
2023-08-12T08:00:29.797Z,64.49
2023-08-12T08:01:29.823Z,64.59
2023-08-12T08:02:29.813Z,65.08
2023-08-12T08:03:29.750Z,64.29
2023-08-12T08:04:29.737Z,62.13
2023-08-12T08:05:29.750Z,61.80
2023-08-12T08:06:29.695Z,62.46
2023-08-12T08:07:29.722Z,62.46
2023-08-12T08:08:29.721Z,61.65
2023-08-12T08:09:29.662Z,62.24
2023-08-12T08:10:29.667Z,61.68
2023-08-12T08:11:29.693Z,61.83
2023-08-12T08:12:29.654Z,62.92
2023-08-12T08:13:29.655Z,62.52
2023-08-12T08:14:29.633Z,63.02
2023-08-12T08:15:29.635Z,63.70
2023-08-12T08:16:29.702Z,63.64
2023-08-12T08:17:30.724Z,63.60
2023-08-12T08:18:30.601Z,63.67
2023-08-12T08:19:30.238Z,68.76
2023-08-12T08:20:30.558Z,69.35
2023-08-12T08:21:29.617Z,66.75
2023-08-12T08:22:32.494Z,67.97
2023-08-12T08:23:29.546Z,68.96
2023-08-12T08:24:29.530Z,67.35
2023-08-12T08:25:29.511Z,67.48
2023-08-12T08:26:29.528Z,69.23
2023-08-12T08:27:29.534Z,75.72
2023-08-12T08:28:29.467Z,78.44
2023-08-12T08:29:29.465Z,78.50
2023-08-12T08:30:29.589Z,79.37
2023-08-12T08:31:29.552Z,81.50
2023-08-12T08:32:29.520Z,78.03
2023-08-12T08:33:29.433Z,76.25
2023-08-12T08:34:29.484Z,76.04
2023-08-12T08:35:29.504Z,77.61
2023-08-12T08:36:29.439Z,81.74
2023-08-12T08:37:29.377Z,82.34
2023-08-12T08:38:29.386Z,81.60
2023-08-12T08:39:29.982Z,81.90
2023-08-12T08:40:29.393Z,81.40
2023-08-12T08:41:32.168Z,83.87
2023-08-12T08:42:30.437Z,85.00
2023-08-12T08:43:29.492Z,85.11
2023-08-12T08:44:29.295Z,85.86
2023-08-12T08:45:29.524Z,82.73
2023-08-12T08:46:29.271Z,82.20
2023-08-12T08:47:29.323Z,82.16
2023-08-12T08:48:29.875Z,82.50
2023-08-12T08:49:29.280Z,82.35
2023-08-12T08:50:29.297Z,81.12
2023-08-12T08:51:29.394Z,80.83
2023-08-12T08:52:29.197Z,80.99
2023-08-12T08:53:29.244Z,79.60
2023-08-12T08:54:29.340Z,80.25
2023-08-12T08:55:29.226Z,81.29
2023-08-12T08:56:29.248Z,81.68
2023-08-12T08:57:40.948Z,80.39
2023-08-12T08:58:30.290Z,80.51
2023-08-12T08:59:29.190Z,81.34
2023-08-12T09:00:29.382Z,80.29
2023-08-12T09:01:29.190Z,80.73
2023-08-12T09:02:29.134Z,81.12
2023-08-12T09:03:29.172Z,80.15
2023-08-12T09:04:29.116Z,80.19
2023-08-12T09:05:29.150Z,80.39
2023-08-12T09:06:29.114Z,80.19
2023-08-12T09:07:29.042Z,79.60
2023-08-12T09:08:29.094Z,79.10
2023-08-12T09:09:29.106Z,81.01
2023-08-12T09:10:29.957Z,83.67
2023-08-12T09:11:30.005Z,84.27
2023-08-12T09:12:29.052Z,84.53
2023-08-12T09:14:01.398Z,83.77
2023-08-12T09:14:29.885Z,83.83
2023-08-12T09:15:29.033Z,83.33
2023-08-12T09:16:29.010Z,84.41
2023-08-12T09:17:29.966Z,86.00
2023-08-12T09:18:29.479Z,85.05
2023-08-12T09:19:28.928Z,85.50
2023-08-12T09:20:28.911Z,85.11
2023-08-12T09:21:28.946Z,85.85
2023-08-12T09:22:28.894Z,87.40
2023-08-12T09:23:28.858Z,85.60
2023-08-12T09:24:28.915Z,85.41
2023-08-12T09:25:29.065Z,85.36
2023-08-12T09:26:28.865Z,87.16
2023-08-12T09:27:28.942Z,85.62
2023-08-12T09:28:28.856Z,84.39
2023-08-12T09:29:28.936Z,84.19
2023-08-12T09:30:28.851Z,84.29
2023-08-12T09:31:28.833Z,83.45
2023-08-12T09:32:28.839Z,83.21
2023-08-12T09:33:28.779Z,83.87
2023-08-12T09:34:28.776Z,82.28
2023-08-12T09:35:28.782Z,83.67
2023-08-12T09:36:28.740Z,82.00
2023-08-12T09:37:28.808Z,80.41
2023-08-12T09:38:28.698Z,80.27
2023-08-12T09:39:28.688Z,79.48
2023-08-12T09:40:28.775Z,78.88
2023-08-12T09:41:28.726Z,76.82
2023-08-12T09:42:28.677Z,75.40
2023-08-12T09:43:29.700Z,75.70
2023-08-12T09:44:28.935Z,75.56
2023-08-12T09:45:29.673Z,73.49
2023-08-12T09:46:28.617Z,74.51
2023-08-12T09:47:28.733Z,74.55
2023-08-12T09:48:28.658Z,75.84
2023-08-12T09:49:28.634Z,75.24
2023-08-12T09:50:28.625Z,76.73
2023-08-12T09:51:28.599Z,76.23
2023-08-12T09:52:28.592Z,76.92
2023-08-12T09:53:28.595Z,76.27
2023-08-12T09:54:28.571Z,76.90
2023-08-12T09:55:28.528Z,76.80
2023-08-12T09:56:28.527Z,77.00
2023-08-12T09:57:28.608Z,78.06
2023-08-12T09:58:28.551Z,78.96
2023-08-12T09:59:28.513Z,79.36
2023-08-12T10:00:28.486Z,78.80
2023-08-12T10:01:29.510Z,80.05
2023-08-12T10:02:28.603Z,80.35
2023-08-12T10:03:28.561Z,80.15
2023-08-12T10:04:28.495Z,79.52
2023-08-12T10:05:28.472Z,78.99
2023-08-12T10:06:28.432Z,77.50
2023-08-12T10:07:28.431Z,77.69
2023-08-12T10:08:28.432Z,77.89
2023-08-12T10:09:29.476Z,76.86
2023-08-12T10:10:28.393Z,77.06
2023-08-12T10:11:28.430Z,76.70
2023-08-12T10:12:28.348Z,77.99
2023-08-12T10:13:28.343Z,77.89
2023-08-12T10:14:28.407Z,77.89
2023-08-12T10:15:28.440Z,77.63
2023-08-12T10:16:28.401Z,78.63
2023-08-12T10:17:42.798Z,78.63
2023-08-12T10:18:30.333Z,78.72
2023-08-12T10:19:28.380Z,77.14
2023-08-12T10:20:28.265Z,77.73
2023-08-12T10:21:28.300Z,78.63
2023-08-12T10:22:28.292Z,78.25
2023-08-12T10:23:28.261Z,77.80
2023-08-12T10:24:28.231Z,77.10
2023-08-12T10:25:28.290Z,77.69
2023-08-12T10:26:28.846Z,77.95
2023-08-12T10:27:28.227Z,77.29
2023-08-12T10:28:28.208Z,78.53
2023-08-12T10:29:28.224Z,78.03
2023-08-12T10:30:28.286Z,78.33
2023-08-12T10:31:28.211Z,78.23
2023-08-12T10:32:28.302Z,78.63
2023-08-12T10:33:28.143Z,79.82
2023-08-12T10:34:28.232Z,78.96
2023-08-12T10:35:28.160Z,79.85
2023-08-12T10:36:28.126Z,79.72
2023-08-12T10:37:28.162Z,80.41
2023-08-12T10:38:28.088Z,80.15
2023-08-12T10:39:28.067Z,80.65
2023-08-12T10:40:28.038Z,80.05
2023-08-12T10:41:28.048Z,80.99
2023-08-12T10:42:28.066Z,80.59
2023-08-12T10:43:28.157Z,81.18
2023-08-12T10:44:28.020Z,80.69
2023-08-12T10:45:28.053Z,81.88
2023-08-12T10:46:29.105Z,81.74
2023-08-12T10:47:28.070Z,81.58
2023-08-12T10:48:28.002Z,81.88
2023-08-12T10:49:27.947Z,81.38
2023-08-12T10:50:28.001Z,82.12
2023-08-12T10:51:27.949Z,82.97
2023-08-12T10:52:27.900Z,81.98
2023-08-12T10:53:27.904Z,82.64
2023-08-12T10:54:27.940Z,81.84
2023-08-12T10:55:27.904Z,81.64
2023-08-12T10:56:27.930Z,81.45
2023-08-12T10:57:28.016Z,81.40
2023-08-12T10:58:28.635Z,81.54
2023-08-12T10:59:27.923Z,81.24
2023-08-12T11:00:27.876Z,81.34
2023-08-12T11:01:27.958Z,81.64
2023-08-12T11:02:27.852Z,81.45
2023-08-12T11:03:27.949Z,81.34
2023-08-12T11:04:30.478Z,81.21
2023-08-12T11:05:27.798Z,80.94
2023-08-12T11:06:27.838Z,80.91
2023-08-12T11:07:27.847Z,81.54
2023-08-12T11:08:27.910Z,81.60
2023-08-12T11:09:27.840Z,80.37
2023-08-12T11:10:27.843Z,79.18
2023-08-12T11:11:27.757Z,79.35
2023-08-12T11:12:27.752Z,79.54
2023-08-12T11:13:27.708Z,79.05
2023-08-12T11:14:27.712Z,79.35
2023-08-12T11:15:27.701Z,78.69
2023-08-12T11:16:27.825Z,79.38
2023-08-12T11:17:27.773Z,80.31
2023-08-12T11:18:27.670Z,80.91
2023-08-12T11:19:27.734Z,80.51
2023-08-12T11:20:30.370Z,81.64
2023-08-12T11:21:27.677Z,82.14
2023-08-12T11:22:27.672Z,82.04
2023-08-12T11:23:27.645Z,81.70
2023-08-12T11:24:27.599Z,81.94
2023-08-12T11:25:27.630Z,80.55
2023-08-12T11:26:27.600Z,80.21
2023-08-12T11:27:27.556Z,79.85
2023-08-12T11:28:27.550Z,78.82
2023-08-12T11:29:27.543Z,79.56
2023-08-12T11:30:31.188Z,78.63
2023-08-12T11:31:27.548Z,78.29
2023-08-12T11:32:27.514Z,77.82
2023-08-12T11:33:28.352Z,76.20
2023-08-12T11:34:27.483Z,75.80
2023-08-12T11:35:27.546Z,76.14
2023-08-12T11:36:27.492Z,76.43
2023-08-12T11:37:27.445Z,76.82
2023-08-12T11:38:27.496Z,75.84
2023-08-12T11:39:27.474Z,76.23
2023-08-12T11:40:27.430Z,76.17
2023-08-12T11:41:27.487Z,76.01
2023-08-12T11:42:27.613Z,76.70
2023-08-12T11:43:27.403Z,77.10
2023-08-12T11:44:27.405Z,76.76
2023-08-12T11:45:27.430Z,77.62
2023-08-12T11:46:27.400Z,75.44
2023-08-12T11:47:27.390Z,76.03
2023-08-12T11:48:27.385Z,75.44
2023-08-12T11:49:27.300Z,75.14
2023-08-12T11:50:27.461Z,74.21
2023-08-12T11:51:28.427Z,74.31
2023-08-12T11:52:27.303Z,74.61
2023-08-12T11:53:27.361Z,74.02
2023-08-12T11:54:28.969Z,75.60
2023-08-12T11:55:27.250Z,75.10
2023-08-12T11:56:27.291Z,73.82
2023-08-12T11:57:27.269Z,74.95
2023-08-12T11:58:33.935Z,75.84
2023-08-12T11:59:28.294Z,75.38
2023-08-12T12:00:27.195Z,75.57
2023-08-12T12:01:27.232Z,76.31
2023-08-12T12:02:27.301Z,75.95
2023-08-12T12:03:27.209Z,77.27
2023-08-12T12:04:27.214Z,77.27
2023-08-12T12:05:27.127Z,78.86
2023-08-12T12:06:28.130Z,78.76
2023-08-12T12:07:27.185Z,78.76
2023-08-12T12:08:27.129Z,78.17
2023-08-12T12:09:27.139Z,78.66
2023-08-12T12:10:28.701Z,78.36
2023-08-12T12:11:27.062Z,78.56
2023-08-12T12:12:27.052Z,78.27
2023-08-12T12:13:27.102Z,78.47
2023-08-12T12:14:27.097Z,78.27
2023-08-12T12:15:27.070Z,78.90
2023-08-12T12:16:27.143Z,78.20
2023-08-12T12:17:27.032Z,79.16
2023-08-12T12:18:26.991Z,78.76
2023-08-12T12:19:27.052Z,79.79
2023-08-12T12:20:26.998Z,78.96
2023-08-12T12:21:26.978Z,78.36
2023-08-12T12:22:26.951Z,78.66
2023-08-12T12:23:29.265Z,78.47
2023-08-12T12:24:26.991Z,77.97
2023-08-12T12:25:26.952Z,78.36
2023-08-12T12:26:26.935Z,78.96
2023-08-12T12:27:26.914Z,78.96
2023-08-12T12:28:30.568Z,77.67
2023-08-12T12:29:26.918Z,78.42
2023-08-12T12:30:26.987Z,77.14
2023-08-12T12:31:26.998Z,77.10
2023-08-12T12:32:26.961Z,77.69
2023-08-12T12:33:26.901Z,77.44
2023-08-12T12:34:27.092Z,77.83
2023-08-12T12:35:26.841Z,77.69
2023-08-12T12:36:26.871Z,77.59
2023-08-12T12:37:26.850Z,77.56
2023-08-12T12:38:26.836Z,75.99
2023-08-12T12:39:26.769Z,74.11
2023-08-12T12:40:26.823Z,75.10
2023-08-12T12:41:26.796Z,74.11
2023-08-12T12:42:26.747Z,74.21
2023-08-12T12:43:26.765Z,74.31
2023-08-12T12:44:26.701Z,73.15
2023-08-12T12:45:26.766Z,71.80
2023-08-12T12:46:26.811Z,71.11
2023-08-12T12:47:26.751Z,71.34
2023-08-12T12:48:26.722Z,71.53
2023-08-12T12:49:26.702Z,75.08
2023-08-12T12:50:26.728Z,77.50
2023-08-12T12:51:26.726Z,77.23
2023-08-12T12:52:26.651Z,78.00